Time;durP1;ratioP1;P1;durP2;ratioP2;P2;SDS_P1;SDS_P2;PMS_P1;PMS_P2;Temp;Humidity;BMP_temperature;BMP_pressure;BME280_temperature;BME280_humidity;BME280_pressure;Samples;Min_cycle;Max_cycle;Signal;HPM_P1;HPM_P2
2023/01/27 00:02:14;;;;;;;;;;;;;;;16.46;45.83;100331.34;4957954;28;1014;-52
2023/01/27 00:04:40;;;;;;;;;;;;;;;16.02;47.31;100321.13;4958545;28;1042;-52
2023/01/27 00:07:05;;;;;;;;;;;;;;;15.77;47.88;100317.38;4968772;28;1180;-50
2023/01/27 00:09:31;;;;;;;;;;;;;;;15.60;48.41;100339.63;4958450;28;1141;-52
2023/01/27 00:14:40;;;;;;;;;;;;;;;17.52;43.60;100345.66;4958341;28;1073;-51
2023/01/27 00:17:05;;;;;;;;;;;;;;;16.42;46.10;100338.50;4958119;28;1070;-52
2023/01/27 00:19:31;;;;;;;;;;;;;;;16.01;47.17;100333.22;4963043;28;996;-53
2023/01/27 00:24:41;;;;;;;;;;;;;;;15.53;48.39;100307.03;4958448;28;1049;-53
2023/01/27 00:27:08;;;;;;;;;;;;;;;16.17;47.02;100323.00;4957507;28;1177;-53
2023/01/27 00:29:34;;;;;;;;;;;;;;;17.51;43.74;100333.81;4925035;28;1213;-53
2023/01/27 00:34:43;;;;;;;;;;;;;;;16.19;46.94;100332.59;4957968;28;986;-52
2023/01/27 00:37:08;;;;;;;;;;;;;;;15.88;47.52;100320.94;4957673;28;1213;-55
2023/01/27 00:39:34;;;;;;;;;;;;;;;15.67;48.12;100323.72;4947009;28;1102;-52
2023/01/27 00:42:00;;;;;;;;;;;;;;;15.49;48.60;100310.59;4959507;28;1157;-52
2023/01/27 00:44:25;;;;;;;;;;;;;;;16.96;45.03;100312.09;4961980;28;1168;-52
2023/01/27 00:46:51;;;;;;;;;;;;;;;17.18;44.25;100319.03;4957389;28;1061;-54
2023/01/27 00:49:17;;;;;;;;;;;;;;;16.28;46.63;100308.13;4940192;28;1093;-54
2023/01/27 00:51:42;;;;;;;;;;;;;;;15.90;47.25;100302.28;4940233;29;2524;-48
2023/01/27 00:54:08;;;;;;;;;;;;;;;15.72;47.91;100307.25;4956916;28;1292;-53
2023/01/27 00:56:33;;;;;;;;;;;;;;;15.66;48.13;100302.88;4940584;29;1712;-51
2023/01/27 00:58:59;;;;;;;;;;;;;;;17.24;44.56;100315.16;4957690;28;1149;-54
2023/01/27 01:01:24;;;;;;;;;;;;;;;17.50;43.58;100309.38;4957539;28;1106;-53
2023/01/27 01:03:51;;;;;;;;;;;;;;;16.47;46.32;100315.72;4957535;28;1229;-53
2023/01/27 01:06:16;;;;;;;;;;;;;;;16.04;47.40;100306.03;4959795;28;1132;-52
2023/01/27 01:08:42;;;;;;;;;;;;;;;15.84;47.86;100314.38;4961390;28;1117;-53
2023/01/27 01:11:07;;;;;;;;;;;;;;;15.62;48.39;100329.19;4957565;28;1184;-55
2023/01/27 01:13:33;;;;;;;;;;;;;;;16.74;45.87;100332.53;4957575;28;1977;-54
2023/01/27 01:16:05;;;;;;;;;;;;;;;17.56;43.69;100346.72;4957539;28;1077;-55
2023/01/27 01:18:32;;;;;;;;;;;;;;;16.39;46.47;100348.13;4957424;28;1075;-55
2023/01/27 01:20:58;;;;;;;;;;;;;;;15.97;47.49;100335.69;4957082;28;1929;-52
2023/01/27 01:23:23;;;;;;;;;;;;;;;15.79;48.08;100331.63;4957408;28;1070;-55
2023/01/27 01:25:53;;;;;;;;;;;;;;;15.60;48.67;100333.31;4939888;29;1316;-54
2023/01/27 01:28:18;;;;;;;;;;;;;;;15.59;48.49;100326.22;4957182;28;1030;-55
2023/01/27 01:30:44;;;;;;;;;;;;;;;17.16;44.71;100315.75;4962150;28;1102;-54
2023/01/27 01:33:09;;;;;;;;;;;;;;;17.75;43.30;100305.53;4959447;28;1974;-54
2023/01/27 01:35:35;;;;;;;;;;;;;;;16.58;46.09;100303.56;4940273;29;1258;-54
2023/01/27 01:38:01;;;;;;;;;;;;;;;16.13;47.19;100295.31;4957262;28;960;-54
2023/01/27 01:40:26;;;;;;;;;;;;;;;15.86;47.81;100301.19;4961953;28;1217;-53
2023/01/27 01:42:53;;;;;;;;;;;;;;;15.67;48.23;100296.28;4958165;28;1049;-55
2023/01/27 01:45:27;;;;;;;;;;;;;;;15.54;48.67;100297.72;4957372;28;1118;-55
2023/01/27 01:47:53;;;;;;;;;;;;;;;16.73;46.05;100280.66;4957184;28;1038;-54
2023/01/27 01:50:18;;;;;;;;;;;;;;;17.72;43.41;100295.94;4924111;28;2279;-55
2023/01/27 01:52:44;;;;;;;;;;;;;;;16.71;45.69;100289.19;4956946;28;1977;-54
2023/01/27 01:55:09;;;;;;;;;;;;;;;16.18;47.37;100288.97;4930541;28;1241;-54
2023/01/27 01:57:36;;;;;;;;;;;;;;;15.88;47.74;100290.78;4959488;28;1081;-53
2023/01/27 02:00:03;;;;;;;;;;;;;;;15.68;48.58;100289.72;4942910;29;1830;-54
2023/01/27 02:02:38;;;;;;;;;;;;;;;15.52;48.95;100277.97;4944723;29;1078;-54
2023/01/27 02:05:08;;;;;;;;;;;;;;;16.00;48.01;100279.47;4943701;29;1150;-52
2023/01/27 02:07:48;;;;;;;;;;;;;;;17.40;44.40;100269.09;4963118;28;920;-54
2023/01/27 02:10:14;;;;;;;;;;;;;;;16.88;45.50;100282.47;4943282;28;1047;-52
2023/01/27 02:12:39;;;;;;;;;;;;;;;16.16;47.21;100274.72;4943202;29;1977;-54
2023/01/27 02:15:05;;;;;;;;;;;;;;;15.80;48.03;100270.22;4960343;28;1176;-50
2023/01/27 02:17:31;;;;;;;;;;;;;;;15.65;48.73;100273.00;4960395;28;1101;-53
2023/01/27 02:20:16;;;;;;;;;;;;;;;15.49;48.95;100255.81;4968869;28;1209;-53
2023/01/27 02:23:07;;;;;;;;;;;;;;;16.89;45.89;100262.16;4952467;28;916;-49
2023/01/27 02:25:35;;;;;;;;;;;;;;;17.11;44.95;100247.97;4945553;28;1311;-55
2023/01/27 02:28:01;;;;;;;;;;;;;;;16.22;47.36;100240.69;4960158;28;1042;-55
2023/01/27 02:30:27;;;;;;;;;;;;;;;15.86;48.04;100240.88;4960209;28;1003;-54
2023/01/27 02:32:52;;;;;;;;;;;;;;;15.68;48.53;100234.91;4963068;28;1906;-51
2023/01/27 02:35:20;;;;;;;;;;;;;;;15.50;49.12;100224.53;4959924;28;1153;-51
2023/01/27 02:37:46;;;;;;;;;;;;;;;15.80;48.42;100204.44;4927296;28;1131;-53
2023/01/27 02:40:11;;;;;;;;;;;;;;;17.29;44.59;100202.41;4931068;29;1211;-51
2023/01/27 02:42:37;;;;;;;;;;;;;;;16.98;45.20;100186.25;4926833;28;1415;-53
2023/01/27 02:45:03;;;;;;;;;;;;;;;16.16;47.29;100182.28;4969956;28;974;-52
2023/01/27 02:47:29;;;;;;;;;;;;;;;15.84;48.13;100182.78;4942817;28;1203;-51
2023/01/27 02:49:54;;;;;;;;;;;;;;;15.66;48.65;100185.00;4942724;29;1120;-54
2023/01/27 02:52:21;;;;;;;;;;;;;;;16.28;47.50;100181.09;4974265;28;2631;-53
2023/01/27 02:54:46;;;;;;;;;;;;;;;17.55;44.18;100177.38;4959488;28;1077;-48
2023/01/27 02:57:12;;;;;;;;;;;;;;;16.60;46.27;100175.88;4947552;28;1129;-53
2023/01/27 02:59:50;;;;;;;;;;;;;;;16.01;47.78;100180.47;4942466;29;1431;-54
2023/01/27 03:02:21;;;;;;;;;;;;;;;15.76;48.60;100184.16;4942094;28;1176;-56
2023/01/27 03:04:47;;;;;;;;;;;;;;;15.60;48.76;100168.88;4927049;29;1258;-49
2023/01/27 03:07:14;;;;;;;;;;;;;;;15.50;49.06;100169.75;4942480;28;1240;-50
2023/01/27 03:09:40;;;;;;;;;;;;;;;17.10;45.49;100164.72;4942311;29;1220;-50
2023/01/27 03:12:20;;;;;;;;;;;;;;;17.28;44.58;100148.59;4959037;28;1985;-46
2023/01/27 03:20:18;;;;;;;;;;;;;;;15.59;48.93;100126.97;4967060;28;1042;-46
2023/01/27 03:22:43;;;;;;;;;;;;;;;15.48;49.20;100109.75;4942750;29;1152;-47
2023/01/27 03:25:11;;;;;;;;;;;;;;;16.65;46.36;100098.19;4942149;28;1411;-46
2023/01/27 03:27:37;;;;;;;;;;;;;;;17.56;44.29;100089.13;4974301;28;1360;-48
2023/01/27 03:30:28;;;;;;;;;;;;;;;16.32;47.31;100097.94;4955978;28;1101;-48
2023/01/27 03:33:06;;;;;;;;;;;;;;;15.91;48.19;100101.84;4944910;28;1918;-47
2023/01/27 03:46:54;;;;;;;;;;;;;;;16.49;46.67;100115.91;4948132;28;1075;-50
2023/01/27 03:49:19;;;;;;;;;;;;;;;16.07;47.72;100108.03;4959044;28;1149;-49
2023/01/27 03:51:45;;;;;;;;;;;;;;;15.84;48.53;100123.28;4959456;28;1224;-49
2023/01/27 03:54:10;;;;;;;;;;;;;;;15.62;49.09;100120.91;4959202;28;1906;-48
2023/01/27 03:56:36;;;;;;;;;;;;;;;16.63;46.62;100132.50;4959020;28;1047;-50
2023/01/27 03:59:01;;;;;;;;;;;;;;;17.70;43.96;100135.13;4959127;28;1217;-47
2023/01/27 04:01:27;;;;;;;;;;;;;;;16.56;46.49;100141.06;4958348;29;1233;-51
2023/01/27 04:09:21;;;;;;;;;;;;;;;15.63;49.02;100138.19;4968663;28;1042;-50
2023/01/27 04:11:57;;;;;;;;;;;;;;;15.49;49.17;100132.50;4958473;28;1118;-49
2023/01/27 04:14:26;;;;;;;;;;;;;;;15.31;49.66;100118.31;4958876;28;1062;-48
2023/01/27 04:16:52;;;;;;;;;;;;;;;16.59;46.73;100122.13;4958734;28;1354;-50
2023/01/27 04:19:17;;;;;;;;;;;;;;;17.58;44.33;100121.81;4958638;28;1203;-52
2023/01/27 04:21:43;;;;;;;;;;;;;;;16.77;46.01;100111.50;4961963;28;960;-48
2023/01/27 04:24:16;;;;;;;;;;;;;;;16.15;47.84;100116.75;4958329;28;1018;-51
2023/01/27 04:26:44;;;;;;;;;;;;;;;15.85;48.57;100111.22;4942341;28;1039;-50
2023/01/27 04:29:10;;;;;;;;;;;;;;;15.61;49.30;100102.00;4958478;28;1462;-53
2023/01/27 04:31:36;;;;;;;;;;;;;;;15.99;48.21;100102.31;4958685;28;1077;-54
2023/01/27 04:34:01;;;;;;;;;;;;;;;17.44;44.82;100100.53;4968658;28;1977;-51
2023/01/27 04:36:26;;;;;;;;;;;;;;;16.64;46.42;100098.47;4940531;28;1050;-53
2023/01/27 04:38:52;;;;;;;;;;;;;;;16.06;47.84;100091.84;4961120;28;1132;-53
2023/01/27 04:41:18;;;;;;;;;;;;;;;15.78;48.85;100102.47;4962784;28;1049;-53
2023/01/27 04:43:43;;;;;;;;;;;;;;;15.59;49.27;100102.28;4958622;28;1228;-50
2023/01/27 04:46:08;;;;;;;;;;;;;;;15.44;49.79;100105.13;4962947;28;1173;-53
2023/01/27 04:48:34;;;;;;;;;;;;;;;16.98;45.89;100094.81;4958194;28;1061;-53
2023/01/27 04:50:59;;;;;;;;;;;;;;;17.45;44.54;100101.38;4958175;28;1128;-52
2023/01/27 04:53:25;;;;;;;;;;;;;;;16.40;46.97;100102.00;4958223;28;1975;-53
2023/01/27 04:55:50;;;;;;;;;;;;;;;15.98;48.26;100104.25;4958948;28;1149;-47
2023/01/27 04:58:16;;;;;;;;;;;;;;;15.68;49.08;100099.75;4968423;28;1165;-49
2023/01/27 05:00:42;;;;;;;;;;;;;;;15.58;49.33;100097.91;4958345;28;1176;-56
2023/01/27 05:03:09;;;;;;;;;;;;;;;16.06;48.16;100098.16;4958192;28;1153;-44
2023/01/27 05:05:34;;;;;;;;;;;;;;;17.45;44.79;100085.69;4957932;28;1342;-46
2023/01/27 05:08:06;;;;;;;;;;;;;;;16.81;46.09;100084.28;4959381;28;1259;-50
2023/01/27 05:10:31;;;;;;;;;;;;;;;16.15;47.94;100081.09;4960243;28;1072;-53
2023/01/27 05:12:57;;;;;;;;;;;;;;;15.80;48.53;100078.34;4957663;28;1910;-54
2023/01/27 05:15:23;;;;;;;;;;;;;;;15.63;49.08;100073.22;4974284;28;1102;-52
2023/01/27 05:17:48;;;;;;;;;;;;;;;15.47;49.39;100061.53;4975924;28;1057;-53
2023/01/27 05:20:14;;;;;;;;;;;;;;;16.91;46.18;100051.22;4975688;28;1146;-51
2023/01/27 05:22:41;;;;;;;;;;;;;;;17.72;44.04;100051.19;4977306;28;1014;-54
2023/01/27 05:25:07;;;;;;;;;;;;;;;16.55;46.77;100055.19;4964289;28;1098;-54
2023/01/27 05:27:32;;;;;;;;;;;;;;;16.07;48.03;100053.19;4977114;28;1022;-52
2023/01/27 05:29:57;;;;;;;;;;;;;;;15.86;48.66;100048.97;4976091;28;1116;-51
2023/01/27 05:32:23;;;;;;;;;;;;;;;15.63;49.17;100061.44;4976218;28;1907;-53
2023/01/27 05:34:48;;;;;;;;;;;;;;;15.44;49.68;100064.03;4966877;28;1153;-50
2023/01/27 05:37:14;;;;;;;;;;;;;;;16.39;47.57;100060.00;4980730;28;1053;-48
2023/01/27 05:39:39;;;;;;;;;;;;;;;17.56;44.57;100047.06;4974515;28;1422;-50
2023/01/27 05:42:04;;;;;;;;;;;;;;;16.63;46.47;100056.47;4980790;28;1006;-54
2023/01/27 05:44:30;;;;;;;;;;;;;;;16.11;47.91;100069.06;4967667;28;1204;-46
2023/01/27 05:46:55;;;;;;;;;;;;;;;15.77;48.81;100061.59;4971366;28;1125;-50
2023/01/27 05:49:21;;;;;;;;;;;;;;;15.56;49.16;100048.06;4973863;28;1208;-48
2023/01/27 05:51:46;;;;;;;;;;;;;;;15.53;49.33;100060.41;4971049;28;1201;-51
2023/01/27 05:54:12;;;;;;;;;;;;;;;17.18;45.35;100049.78;4967618;28;1977;-48
2023/01/27 05:56:38;;;;;;;;;;;;;;;16.75;46.14;100031.34;4973980;28;1026;-48
2023/01/27 05:59:03;;;;;;;;;;;;;;;16.05;48.21;100036.19;4964524;28;1169;-47
2023/01/27 06:01:29;;;;;;;;;;;;;;;15.77;48.69;100040.50;4970271;28;1124;-50
2023/01/27 06:03:55;;;;;;;;;;;;;;;15.52;49.55;100025.88;4964200;28;1061;-55
2023/01/27 06:06:21;;;;;;;;;;;;;;;16.87;46.15;100033.69;4961020;28;1018;-49
2023/01/27 06:08:47;;;;;;;;;;;;;;;17.19;45.39;100022.00;4947471;28;1157;-48
2023/01/27 06:11:12;;;;;;;;;;;;;;;16.28;47.48;100032.97;4960774;28;1145;-48
2023/01/27 06:13:38;;;;;;;;;;;;;;;15.88;48.71;100033.06;4960918;28;1931;-47
2023/01/27 06:16:04;;;;;;;;;;;;;;;15.64;49.30;100031.03;4961002;28;1077;-49
2023/01/27 06:18:30;;;;;;;;;;;;;;;15.48;49.76;100024.81;4973856;28;1034;-45
2023/01/27 06:21:01;;;;;;;;;;;;;;;16.97;46.06;100030.00;4979914;28;1168;-53
2023/01/27 06:23:27;;;;;;;;;;;;;;;15.74;48.24;100036.41;4979656;28;1052;-50
2023/01/27 06:25:52;;;;;;;;;;;;;;;15.22;48.80;100035.94;4979937;28;1085;-52
2023/01/27 06:28:18;;;;;;;;;;;;;;;15.13;48.21;100014.91;4979867;28;1084;-52
2023/01/27 06:30:43;;;;;;;;;;;;;;;15.79;48.33;100002.69;4954207;28;1003;-46
2023/01/27 06:33:09;;;;;;;;;;;;;;;15.39;49.20;100002.69;4979191;28;1979;-49
2023/01/27 06:35:35;;;;;;;;;;;;;;;17.25;45.39;99996.13;4973639;28;1113;-53
2023/01/27 06:38:00;;;;;;;;;;;;;;;16.18;47.47;99990.81;4973411;28;1073;-57
2023/01/27 06:40:26;;;;;;;;;;;;;;;15.65;48.10;99999.75;4979823;28;1045;-52
2023/01/27 06:42:52;;;;;;;;;;;;;;;15.37;48.21;99999.41;4979878;28;1097;-49
2023/01/27 06:45:17;;;;;;;;;;;;;;;15.18;47.70;99998.41;4965576;28;1033;-53
2023/01/27 06:47:42;;;;;;;;;;;;;;;16.60;47.10;100007.66;4979464;28;1144;-55
2023/01/27 06:50:09;;;;;;;;;;;;;;;15.81;48.45;100003.22;4979051;28;1089;-54
2023/01/27 06:52:34;;;;;;;;;;;;;;;16.79;47.00;99993.97;4976234;28;1903;-48
2023/01/27 06:54:59;;;;;;;;;;;;;;;16.99;46.15;100003.91;4969523;28;1185;-51
2023/01/27 06:57:25;;;;;;;;;;;;;;;16.00;48.17;100019.75;4978429;28;1152;-51
2023/01/27 06:59:50;;;;;;;;;;;;;;;15.56;48.36;100012.44;4959675;29;1201;-51
2023/01/27 07:02:16;;;;;;;;;;;;;;;15.46;47.87;100024.28;4959023;29;1201;-52
2023/01/27 07:04:41;;;;;;;;;;;;;;;15.43;47.30;100018.53;4959631;29;1217;-52
2023/01/27 07:07:07;;;;;;;;;;;;;;;16.21;47.67;100014.09;4959855;29;1289;-47
2023/01/27 07:09:32;;;;;;;;;;;;;;;15.52;48.89;100014.91;4968975;28;1165;-49
2023/01/27 07:11:57;;;;;;;;;;;;;;;15.39;48.62;100015.56;4965822;28;1985;-50
2023/01/27 07:14:23;;;;;;;;;;;;;;;15.96;48.27;100005.00;4979171;28;1148;-49
2023/01/27 07:16:48;;;;;;;;;;;;;;;17.03;46.83;99996.69;4965959;28;1173;-52
2023/01/27 07:19:15;;;;;;;;;;;;;;;18.11;44.17;99989.50;4969891;28;1170;-53
2023/01/27 07:21:40;;;;;;;;;;;;;;;16.52;47.50;99986.31;4972286;28;1094;-51
2023/01/27 07:24:06;;;;;;;;;;;;;;;15.96;48.06;99996.78;4969013;28;1161;-49
2023/01/27 07:26:31;;;;;;;;;;;;;;;15.73;47.66;99993.66;4978538;28;1021;-52
2023/01/27 07:28:57;;;;;;;;;;;;;;;16.25;48.05;100001.44;4969352;28;1137;-52
2023/01/27 07:31:22;;;;;;;;;;;;;;;16.01;48.20;99995.91;4975536;28;1101;-49
2023/01/27 07:33:48;;;;;;;;;;;;;;;15.61;48.17;99989.66;4978761;28;1910;-52
2023/01/27 07:36:13;;;;;;;;;;;;;;;15.49;47.87;99995.50;4978686;28;1109;-49
2023/01/27 07:38:38;;;;;;;;;;;;;;;15.34;47.30;99990.94;4978708;28;1013;-50
2023/01/27 07:41:07;;;;;;;;;;;;;;;15.28;47.12;99987.41;4976009;28;1049;-50
2023/01/27 07:43:33;;;;;;;;;;;;;;;16.73;47.04;99974.00;4959332;28;1125;-51
2023/01/27 07:45:58;;;;;;;;;;;;;;;15.76;48.48;99975.00;4957183;28;1226;-51
2023/01/27 07:48:24;;;;;;;;;;;;;;;15.44;48.16;99965.41;4978341;28;1080;-50
2023/01/27 07:50:49;;;;;;;;;;;;;;;16.43;47.62;99970.50;4975803;28;1069;-50
2023/01/27 07:53:15;;;;;;;;;;;;;;;15.60;48.71;99964.19;4959970;28;1891;-50
2023/01/27 07:55:40;;;;;;;;;;;;;;;16.28;48.35;99962.44;4962254;28;1088;-54
2023/01/27 07:58:06;;;;;;;;;;;;;;;16.17;48.71;99961.75;4964316;28;1109;-51
2023/01/27 08:00:32;;;;;;;;;;;;;;;15.73;48.28;99963.50;4968784;28;1042;-51
2023/01/27 08:02:57;;;;;;;;;;;;;;;15.55;48.14;99972.44;4965563;28;1173;-50
2023/01/27 08:05:23;;;;;;;;;;;;;;;15.66;48.63;99973.97;4968376;28;1503;-48
2023/01/27 08:07:48;;;;;;;;;;;;;;;16.08;48.62;99968.97;4958259;29;1225;-46
2023/01/27 08:10:14;;;;;;;;;;;;;;;15.53;48.99;99964.50;4958297;28;1209;-51
2023/01/27 08:12:39;;;;;;;;;;;;;;;17.38;46.54;99975.31;4969720;28;1979;-48
2023/01/27 08:15:05;;;;;;;;;;;;;;;16.12;48.70;99963.72;4977749;28;1084;-49
2023/01/27 08:17:31;;;;;;;;;;;;;;;15.79;48.30;99968.94;4978255;28;1037;-48
2023/01/27 08:19:56;;;;;;;;;;;;;;;15.46;48.13;99957.69;4947732;28;1142;-51
2023/01/27 08:22:21;;;;;;;;;;;;;;;15.80;48.72;99960.47;4966428;28;1165;-47
2023/01/27 08:24:50;;;;;;;;;;;;;;;15.83;49.00;99940.69;4971551;28;1090;-52
2023/01/27 08:27:15;;;;;;;;;;;;;;;17.04;47.26;99940.66;4969572;28;1114;-51
2023/01/27 08:29:41;;;;;;;;;;;;;;;17.61;46.08;99931.50;4964514;28;1186;-46
2023/01/27 08:32:06;;;;;;;;;;;;;;;16.33;48.45;99937.72;4966494;28;1903;-48
2023/01/27 08:34:32;;;;;;;;;;;;;;;16.04;47.97;99919.38;4975586;28;1066;-51
2023/01/27 08:36:57;;;;;;;;;;;;;;;15.73;47.73;99922.38;4977710;28;1017;-52
2023/01/27 08:39:22;;;;;;;;;;;;;;;16.95;47.30;99920.47;4977533;28;1061;-51
2023/01/27 08:41:48;;;;;;;;;;;;;;;16.02;48.70;99916.09;4977319;28;1037;-55
2023/01/27 08:44:13;;;;;;;;;;;;;;;15.73;48.33;99914.16;4959881;28;1232;-51
2023/01/27 08:46:39;;;;;;;;;;;;;;;15.62;47.91;99898.13;4955275;28;1249;-51
2023/01/27 08:49:04;;;;;;;;;;;;;;;16.50;48.16;99898.00;4962351;28;1253;-54
2023/01/27 08:51:30;;;;;;;;;;;;;;;15.79;48.90;99911.38;4977364;28;1053;-54
2023/01/27 08:53:55;;;;;;;;;;;;;;;15.54;48.46;99911.34;4973178;28;1918;-46
2023/01/27 08:56:20;;;;;;;;;;;;;;;15.42;47.93;99910.06;4964929;28;1149;-45
2023/01/27 08:58:47;;;;;;;;;;;;;;;16.38;48.26;99912.97;4976664;28;1025;-51
2023/01/27 09:01:12;;;;;;;;;;;;;;;15.92;48.99;99897.00;4970202;28;1189;-52
2023/01/27 09:03:38;;;;;;;;;;;;;;;15.53;48.81;99900.69;4971190;28;1034;-50
2023/01/27 09:06:03;;;;;;;;;;;;;;;16.40;48.06;99891.53;4976949;28;1081;-54
2023/01/27 09:08:29;;;;;;;;;;;;;;;15.64;48.94;99888.50;4963957;28;1122;-52
2023/01/27 09:10:54;;;;;;;;;;;;;;;16.03;48.93;99884.84;4969795;28;856;-47
2023/01/27 09:13:22;;;;;;;;;;;;;;;16.12;49.04;99867.72;4970879;28;1911;-46
2023/01/27 09:15:51;;;;;;;;;;;;;;;17.26;47.11;99863.13;4969847;28;1149;-51
2023/01/27 09:18:16;;;;;;;;;;;;;;;18.09;45.50;99854.22;4970906;28;1243;-50
2023/01/27 09:20:42;;;;;;;;;;;;;;;16.65;48.39;99853.03;4965316;28;1134;-55
2023/01/27 09:23:07;;;;;;;;;;;;;;;16.14;48.56;99840.84;4967309;28;1081;-53
2023/01/27 09:25:33;;;;;;;;;;;;;;;16.01;47.49;99843.16;4969688;28;1061;-47
2023/01/27 09:27:58;;;;;;;;;;;;;;;16.31;48.64;99835.66;4971140;28;1128;-46
2023/01/27 09:30:24;;;;;;;;;;;;;;;16.21;49.04;99841.28;4959325;28;1299;-48
2023/01/27 09:32:49;;;;;;;;;;;;;;;16.35;49.24;99842.19;4956825;29;1981;-48
2023/01/27 09:35:15;;;;;;;;;;;;;;;17.58;46.81;99841.41;4957374;28;1193;-49
2023/01/27 09:37:45;;;;;;;;;;;;;;;16.35;48.91;99839.44;4956283;29;1272;-46
2023/01/27 09:40:14;;;;;;;;;;;;;;;16.10;48.40;99856.25;4957551;29;1320;-51
2023/01/27 09:42:48;;;;;;;;;;;;;;;15.79;48.07;99862.88;4957691;29;1245;-52
2023/01/27 09:45:33;;;;;;;;;;;;;;;15.79;47.14;99868.34;4958914;28;1226;-53
2023/01/27 09:48:20;;;;;;;;;;;;;;;15.66;46.92;99880.81;4956247;28;1261;-50
2023/01/27 09:50:46;;;;;;;;;;;;;;;15.42;46.93;99885.41;4939393;29;2595;-52
2023/01/27 09:53:27;;;;;;;;;;;;;;;15.38;46.56;99882.44;4956709;28;1914;-50
2023/01/27 09:56:01;;;;;;;;;;;;;;;16.25;47.54;99884.28;4957088;28;1193;-54
2023/01/27 09:58:45;;;;;;;;;;;;;;;16.13;48.52;99905.00;4956125;28;1182;-45
2023/01/27 10:01:27;;;;;;;;;;;;;;;17.77;46.92;99908.13;4951776;28;1011;-49
2023/01/27 10:03:52;;;;;;;;;;;;;;;16.63;48.94;99913.72;4977697;28;1192;-53
2023/01/27 10:06:30;;;;;;;;;;;;;;;16.02;49.06;99899.66;4957206;28;1229;-49
2023/01/27 10:09:05;;;;;;;;;;;;;;;15.77;48.55;99903.44;4956503;29;1128;-47
2023/01/27 10:11:37;;;;;;;;;;;;;;;16.56;48.76;99899.56;4963060;28;1134;-52
2023/01/27 10:14:21;;;;;;;;;;;;;;;15.90;49.04;99885.53;4933955;28;1906;-55
2023/01/27 10:17:05;;;;;;;;;;;;;;;15.60;48.26;99879.22;4976657;28;1062;-51
2023/01/27 10:19:33;;;;;;;;;;;;;;;15.45;47.74;99868.41;4976679;28;1054;-51
2023/01/27 10:22:08;;;;;;;;;;;;;;;15.54;47.85;99878.47;4974262;28;1057;-53
2023/01/27 10:24:58;;;;;;;;;;;;;;;16.24;48.71;99857.16;4961938;28;884;-51
2023/01/27 10:27:24;;;;;;;;;;;;;;;15.56;48.84;99854.31;4957045;28;1194;-52
2023/01/27 10:30:07;;;;;;;;;;;;;;;15.89;49.20;99826.31;4967116;28;1216;-49
2023/01/27 10:32:45;;;;;;;;;;;;;;;15.73;49.08;99815.50;4968731;28;1950;-55
2023/01/27 10:35:23;;;;;;;;;;;;;;;15.52;48.34;99794.91;4948135;28;895;-53
2023/01/27 10:38:06;;;;;;;;;;;;;;;16.22;48.39;99805.34;4990249;28;1097;-48
2023/01/27 10:40:35;;;;;;;;;;;;;;;15.92;48.81;99801.03;4979662;28;1175;-54
2023/01/27 10:43:03;;;;;;;;;;;;;;;15.58;48.76;99793.75;4966992;28;1145;-48
2023/01/27 10:45:36;;;;;;;;;;;;;;;16.47;48.38;99795.13;4967761;28;1038;-52
2023/01/27 10:48:22;;;;;;;;;;;;;;;15.71;48.74;99784.00;4961784;28;1101;-55
2023/01/27 10:50:55;;;;;;;;;;;;;;;15.46;48.12;99771.41;4981718;28;1137;-47
2023/01/27 10:53:43;;;;;;;;;;;;;;;15.95;48.74;99764.84;4980461;28;1979;-52
2023/01/27 10:56:08;;;;;;;;;;;;;;;15.66;49.08;99752.00;4941158;29;1245;-51
2023/01/27 10:58:51;;;;;;;;;;;;;;;15.48;48.36;99747.28;4959868;28;1186;-51
2023/01/27 11:01:19;;;;;;;;;;;;;;;16.45;47.99;99736.16;4972330;28;1217;-55
2023/01/27 11:03:55;;;;;;;;;;;;;;;15.91;49.10;99728.97;4942669;29;1325;-52
2023/01/27 11:06:24;;;;;;;;;;;;;;;17.67;46.45;99729.63;4942490;29;1194;-52
2023/01/27 11:08:54;;;;;;;;;;;;;;;16.99;47.90;99723.78;4959523;29;1225;-50
2023/01/27 11:14:27;;;;;;;;;;;;;;;15.85;48.24;99701.91;4945033;29;1960;-50
2023/01/27 11:17:03;;;;;;;;;;;;;;;16.32;49.03;99702.06;4953362;29;1312;-52
2023/01/27 11:19:52;;;;;;;;;;;;;;;15.89;48.51;99678.28;4970889;28;1183;-52
2023/01/27 11:22:27;;;;;;;;;;;;;;;15.63;47.83;99645.72;4932302;28;1064;-50
2023/01/27 11:24:59;;;;;;;;;;;;;;;15.60;47.91;99629.88;4941669;29;1533;-51
2023/01/27 11:27:36;;;;;;;;;;;;;;;15.98;48.57;99635.38;4962515;28;1042;-52
2023/01/27 11:30:06;;;;;;;;;;;;;;;15.53;48.29;99623.94;4939913;29;1190;-57
2023/01/27 11:32:38;;;;;;;;;;;;;;;16.13;48.41;99623.38;4941575;28;1967;-53
2023/01/27 11:35:04;;;;;;;;;;;;;;;15.93;49.08;99620.94;4978294;28;1128;-53
2023/01/27 11:37:31;;;;;;;;;;;;;;;16.71;48.17;99602.88;4978621;28;1069;-54
2023/01/27 11:39:57;;;;;;;;;;;;;;;17.61;46.53;99612.63;4970775;28;1065;-52
2023/01/27 11:42:23;;;;;;;;;;;;;;;16.30;48.80;99608.28;4959081;29;1142;-51
2023/01/27 11:44:49;;;;;;;;;;;;;;;16.03;48.25;99618.03;4942291;29;1214;-52
2023/01/27 11:47:18;;;;;;;;;;;;;;;15.72;47.71;99604.75;4941250;28;1218;-51
2023/01/27 11:49:44;;;;;;;;;;;;;;;16.36;48.72;99607.09;4944095;28;1080;-53
2023/01/27 11:52:11;;;;;;;;;;;;;;;15.85;48.61;99598.56;4978135;28;1910;-53
2023/01/27 11:54:42;;;;;;;;;;;;;;;15.65;48.03;99599.63;4965465;28;1209;-53
2023/01/27 11:57:13;;;;;;;;;;;;;;;16.22;48.75;99591.38;4993332;28;1124;-48
2023/01/27 11:59:39;;;;;;;;;;;;;;;15.67;48.88;99605.66;4993115;28;1010;-54
2023/01/27 12:02:12;;;;;;;;;;;;;;;15.60;48.10;99605.19;4980064;28;1149;-56
2023/01/27 12:04:37;;;;;;;;;;;;;;;15.48;47.18;99588.38;4960733;28;1061;-50
2023/01/27 12:07:09;;;;;;;;;;;;;;;15.71;48.04;99584.75;4976822;28;1054;-51
2023/01/27 12:09:38;;;;;;;;;;;;;;;16.45;48.46;99593.47;4982803;28;1161;-50
2023/01/27 12:12:12;;;;;;;;;;;;;;;15.74;49.09;99597.88;4964933;28;1176;-57
2023/01/27 12:14:38;;;;;;;;;;;;;;;15.52;48.18;99609.41;4960588;28;1284;-54
2023/01/27 12:17:04;;;;;;;;;;;;;;;15.45;47.55;99605.41;4964897;28;1227;-52
2023/01/27 12:19:31;;;;;;;;;;;;;;;16.15;48.36;99606.63;4967047;28;1164;-48
2023/01/27 12:21:57;;;;;;;;;;;;;;;15.67;48.64;99622.09;4971112;28;1128;-50
2023/01/27 12:24:25;;;;;;;;;;;;;;;16.36;48.26;99621.59;4969442;28;1077;-49
2023/01/27 12:26:51;;;;;;;;;;;;;;;16.00;48.56;99630.41;4973138;28;1069;-53
2023/01/27 12:29:19;;;;;;;;;;;;;;;15.54;48.51;99620.06;4962825;28;1214;-50
2023/01/27 12:31:48;;;;;;;;;;;;;;;16.55;48.13;99616.06;4958276;29;1261;-49
2023/01/27 12:34:20;;;;;;;;;;;;;;;16.01;48.84;99606.56;4941396;29;2061;-56
2023/01/27 12:36:45;;;;;;;;;;;;;;;15.71;48.05;99614.91;4961418;28;1011;-51
2023/01/27 12:39:24;;;;;;;;;;;;;;;16.70;47.82;99614.97;4977780;28;1053;-49
2023/01/27 12:41:50;;;;;;;;;;;;;;;15.83;48.80;99617.22;4964574;28;1170;-53
2023/01/27 12:44:16;;;;;;;;;;;;;;;15.69;47.96;99622.59;4980475;28;1402;-53
2023/01/27 12:46:53;;;;;;;;;;;;;;;16.22;48.28;99628.97;4976103;28;1050;-54
2023/01/27 12:49:19;;;;;;;;;;;;;;;15.93;48.59;99643.66;4979159;28;923;-57
2023/01/27 12:51:50;;;;;;;;;;;;;;;17.60;46.61;99649.50;4977570;28;1105;-55
2023/01/27 12:54:20;;;;;;;;;;;;;;;16.24;48.63;99670.63;4978888;28;1914;-51
2023/01/27 12:56:46;;;;;;;;;;;;;;;15.84;48.22;99672.88;4977162;28;1466;-50
2023/01/27 12:59:15;;;;;;;;;;;;;;;15.68;47.64;99681.28;4977781;28;1069;-54
2023/01/27 13:01:42;;;;;;;;;;;;;;;15.53;47.15;99684.22;4966577;28;975;-54
2023/01/27 13:04:14;;;;;;;;;;;;;;;16.05;47.60;99696.13;4975258;28;1105;-47
2023/01/27 13:06:42;;;;;;;;;;;;;;;15.82;48.84;99688.78;4966050;28;1289;-57
2023/01/27 13:09:26;;;;;;;;;;;;;;;16.17;48.56;99689.38;4985780;28;1050;-54
2023/01/27 13:11:52;;;;;;;;;;;;;;;17.07;47.37;99692.88;4971184;28;1134;-55
2023/01/27 13:14:18;;;;;;;;;;;;;;;16.08;48.74;99689.25;4977608;28;1906;-57
2023/01/27 13:16:52;;;;;;;;;;;;;;;15.82;48.26;99692.38;4975845;28;1033;-50
2023/01/27 13:19:18;;;;;;;;;;;;;;;16.53;48.72;99688.84;4957968;28;1177;-54
2023/01/27 13:21:44;;;;;;;;;;;;;;;16.49;48.86;99691.34;4971141;28;1117;-54
2023/01/27 13:24:11;;;;;;;;;;;;;;;18.07;46.03;99683.13;4966897;28;1138;-53
2023/01/27 13:26:36;;;;;;;;;;;;;;;17.02;48.12;99676.47;4965730;28;1197;-54
2023/01/27 13:29:13;;;;;;;;;;;;;;;16.31;48.51;99681.22;4963356;28;1246;-51
2023/01/27 13:31:57;;;;;;;;;;;;;;;16.11;47.54;99688.66;4971584;28;1477;-55